Volney, Iowa
Current Conditions -  °F | °C
As of 4:35 PM on Friday 31 Oct 2014 (Local Time) from KPDC Reporting Station
Scattered Clouds Scattered Clouds  
Wind Chill: 34°   Ceiling: Unl
Heat Index: 40°   Visibility: 10mi
Dew Point: 15°   Wind: 10mph
Humidity: 37%   Direction: 350°N
Pressure: 30.42"   Gusts: 22mph
Location:  43.0888°N, 91.4288°W
Report Text: KPDC 312135Z AUTO 35009G19KT 10SM SCT050 05/M09 A3042 RMK AO2 T00461092
Loading
Personal Weather Stations






























Interactive Weather Map
Tropical Storm Tracking
New forecast layout! Learn more

10-Day Weather Forecast

Advertisements
Track Severe Weather on mobile